sensor_id;sensor_type;location;lat;lon;timestamp;P1;durP1;ratioP1;P2;durP2;ratioP2
49758;SDS011;35654;46.080;11.118;2023-02-22T00:01:31;136.13;;;56.08;;
49758;SDS011;35654;46.080;11.118;2023-02-22T00:04:13;136.05;;;56.92;;
49758;SDS011;35654;46.080;11.118;2023-02-22T00:06:41;133.32;;;56.78;;
49758;SDS011;35654;46.080;11.118;2023-02-22T00:09:08;135.52;;;56.70;;
49758;SDS011;35654;46.080;11.118;2023-02-22T00:11:35;140.90;;;56.42;;
49758;SDS011;35654;46.080;11.118;2023-02-22T00:14:04;133.00;;;55.13;;
49758;SDS011;35654;46.080;11.118;2023-02-22T00:16:30;130.70;;;53.53;;
49758;SDS011;35654;46.080;11.118;2023-02-22T00:18:57;137.93;;;56.42;;
49758;SDS011;35654;46.080;11.118;2023-02-22T00:21:23;147.27;;;57.83;;
49758;SDS011;35654;46.080;11.118;2023-02-22T00:23:50;137.93;;;59.53;;
49758;SDS011;35654;46.080;11.118;2023-02-22T00:26:20;141.13;;;59.20;;
49758;SDS011;35654;46.080;11.118;2023-02-22T00:28:49;136.93;;;56.35;;
49758;SDS011;35654;46.080;11.118;2023-02-22T00:31:18;139.07;;;55.88;;
49758;SDS011;35654;46.080;11.118;2023-02-22T00:33:46;136.13;;;55.88;;
49758;SDS011;35654;46.080;11.118;2023-02-22T00:36:13;125.97;;;52.60;;
49758;SDS011;35654;46.080;11.118;2023-02-22T00:38:39;128.93;;;52.90;;
49758;SDS011;35654;46.080;11.118;2023-02-22T00:43:33;122.72;;;50.92;;
49758;SDS011;35654;46.080;11.118;2023-02-22T00:48:26;115.85;;;47.97;;
49758;SDS011;35654;46.080;11.118;2023-02-22T00:50:53;111.68;;;46.63;;
49758;SDS011;35654;46.080;11.118;2023-02-22T00:58:16;106.20;;;44.53;;
49758;SDS011;35654;46.080;11.118;2023-02-22T01:00:44;109.80;;;43.72;;
49758;SDS011;35654;46.080;11.118;2023-02-22T01:03:12;109.53;;;44.83;;
49758;SDS011;35654;46.080;11.118;2023-02-22T01:05:41;106.28;;;45.08;;
49758;SDS011;35654;46.080;11.118;2023-02-22T01:08:08;111.13;;;43.13;;
49758;SDS011;35654;46.080;11.118;2023-02-22T01:10:36;98.40;;;42.78;;
49758;SDS011;35654;46.080;11.118;2023-02-22T01:13:05;97.32;;;41.80;;
49758;SDS011;35654;46.080;11.118;2023-02-22T01:15:34;101.25;;;41.15;;
49758;SDS011;35654;46.080;11.118;2023-02-22T01:18:02;93.63;;;41.33;;
49758;SDS011;35654;46.080;11.118;2023-02-22T01:20:30;94.43;;;41.25;;
49758;SDS011;35654;46.080;11.118;2023-02-22T01:22:58;91.97;;;39.13;;
49758;SDS011;35654;46.080;11.118;2023-02-22T01:25:29;92.78;;;40.25;;
49758;SDS011;35654;46.080;11.118;2023-02-22T01:27:57;95.00;;;40.45;;
49758;SDS011;35654;46.080;11.118;2023-02-22T01:30:28;95.45;;;40.88;;
49758;SDS011;35654;46.080;11.118;2023-02-22T01:32:58;96.28;;;39.50;;
49758;SDS011;35654;46.080;11.118;2023-02-22T01:35:26;91.63;;;39.35;;
49758;SDS011;35654;46.080;11.118;2023-02-22T01:37:54;92.28;;;40.28;;
49758;SDS011;35654;46.080;11.118;2023-02-22T01:40:25;92.95;;;39.65;;
49758;SDS011;35654;46.080;11.118;2023-02-22T01:43:00;96.30;;;40.03;;
49758;SDS011;35654;46.080;11.118;2023-02-22T01:48:11;93.60;;;39.90;;
49758;SDS011;35654;46.080;11.118;2023-02-22T01:50:43;94.65;;;40.15;;
49758;SDS011;35654;46.080;11.118;2023-02-22T01:53:18;85.55;;;37.65;;
49758;SDS011;35654;46.080;11.118;2023-02-22T01:55:52;91.40;;;37.88;;
49758;SDS011;35654;46.080;11.118;2023-02-22T01:58:20;98.35;;;38.08;;
49758;SDS011;35654;46.080;11.118;2023-02-22T02:00:51;89.00;;;37.65;;
49758;SDS011;35654;46.080;11.118;2023-02-22T02:03:21;85.32;;;37.88;;
49758;SDS011;35654;46.080;11.118;2023-02-22T02:05:53;87.70;;;38.50;;
49758;SDS011;35654;46.080;11.118;2023-02-22T02:08:44;89.85;;;37.75;;
49758;SDS011;35654;46.080;11.118;2023-02-22T02:11:15;88.32;;;37.38;;
49758;SDS011;35654;46.080;11.118;2023-02-22T02:13:45;92.03;;;38.65;;
49758;SDS011;35654;46.080;11.118;2023-02-22T02:16:12;93.15;;;38.33;;
49758;SDS011;35654;46.080;11.118;2023-02-22T02:18:39;92.47;;;38.35;;
49758;SDS011;35654;46.080;11.118;2023-02-22T02:27:09;99.10;;;40.40;;
49758;SDS011;35654;46.080;11.118;2023-02-22T02:35:46;93.18;;;39.25;;
49758;SDS011;35654;46.080;11.118;2023-02-22T02:41:09;92.07;;;38.40;;
49758;SDS011;35654;46.080;11.118;2023-02-22T02:46:32;93.07;;;39.60;;
49758;SDS011;35654;46.080;11.118;2023-02-22T02:49:03;99.38;;;39.55;;
49758;SDS011;35654;46.080;11.118;2023-02-22T02:51:35;92.88;;;38.92;;
49758;SDS011;35654;46.080;11.118;2023-02-22T02:54:07;95.25;;;39.05;;
49758;SDS011;35654;46.080;11.118;2023-02-22T02:56:35;98.82;;;39.67;;
49758;SDS011;35654;46.080;11.118;2023-02-22T02:59:02;90.35;;;36.92;;
49758;SDS011;35654;46.080;11.118;2023-02-22T03:01:49;89.20;;;38.92;;
49758;SDS011;35654;46.080;11.118;2023-02-22T03:13:00;87.75;;;37.00;;
49758;SDS011;35654;46.080;11.118;2023-02-22T03:18:25;88.93;;;36.50;;
49758;SDS011;35654;46.080;11.118;2023-02-22T03:21:14;85.93;;;35.00;;
49758;SDS011;35654;46.080;11.118;2023-02-22T03:26:43;87.57;;;35.75;;
49758;SDS011;35654;46.080;11.118;2023-02-22T03:29:16;85.30;;;35.60;;
49758;SDS011;35654;46.080;11.118;2023-02-22T03:31:50;87.05;;;35.85;;
49758;SDS011;35654;46.080;11.118;2023-02-22T03:34:25;88.88;;;36.97;;
49758;SDS011;35654;46.080;11.118;2023-02-22T03:36:58;80.80;;;34.42;;
49758;SDS011;35654;46.080;11.118;2023-02-22T03:39:28;85.75;;;35.90;;
49758;SDS011;35654;46.080;11.118;2023-02-22T03:41:59;88.78;;;37.55;;
49758;SDS011;35654;46.080;11.118;2023-02-22T03:44:32;82.82;;;35.28;;
49758;SDS011;35654;46.080;11.118;2023-02-22T03:47:05;88.55;;;36.70;;
49758;SDS011;35654;46.080;11.118;2023-02-22T03:52:19;92.00;;;37.10;;
49758;SDS011;35654;46.080;11.118;2023-02-22T03:54:47;84.85;;;35.38;;
49758;SDS011;35654;46.080;11.118;2023-02-22T03:57:27;86.82;;;35.85;;
49758;SDS011;35654;46.080;11.118;2023-02-22T03:59:58;90.70;;;36.03;;
49758;SDS011;35654;46.080;11.118;2023-02-22T04:02:25;77.55;;;34.65;;
49758;SDS011;35654;46.080;11.118;2023-02-22T04:07:18;82.93;;;34.45;;
49758;SDS011;35654;46.080;11.118;2023-02-22T04:09:45;88.65;;;35.97;;
49758;SDS011;35654;46.080;11.118;2023-02-22T04:12:12;88.30;;;35.38;;
49758;SDS011;35654;46.080;11.118;2023-02-22T04:17:03;85.65;;;35.03;;
49758;SDS011;35654;46.080;11.118;2023-02-22T04:19:30;90.95;;;34.42;;
49758;SDS011;35654;46.080;11.118;2023-02-22T04:21:57;81.40;;;34.28;;
49758;SDS011;35654;46.080;11.118;2023-02-22T04:24:24;91.45;;;35.63;;
49758;SDS011;35654;46.080;11.118;2023-02-22T04:26:50;82.80;;;35.38;;
49758;SDS011;35654;46.080;11.118;2023-02-22T04:29:18;88.32;;;35.75;;
49758;SDS011;35654;46.080;11.118;2023-02-22T04:34:11;84.03;;;34.38;;
49758;SDS011;35654;46.080;11.118;2023-02-22T04:36:38;91.60;;;35.67;;
49758;SDS011;35654;46.080;11.118;2023-02-22T04:39:07;91.20;;;34.85;;
49758;SDS011;35654;46.080;11.118;2023-02-22T04:41:34;86.80;;;35.60;;
49758;SDS011;35654;46.080;11.118;2023-02-22T04:46:27;80.95;;;35.08;;
49758;SDS011;35654;46.080;11.118;2023-02-22T04:48:53;92.70;;;36.22;;
49758;SDS011;35654;46.080;11.118;2023-02-22T04:51:20;83.73;;;35.47;;
49758;SDS011;35654;46.080;11.118;2023-02-22T04:53:46;77.80;;;35.15;;
49758;SDS011;35654;46.080;11.118;2023-02-22T04:58:41;85.65;;;34.05;;
49758;SDS011;35654;46.080;11.118;2023-02-22T05:01:08;86.57;;;33.72;;
49758;SDS011;35654;46.080;11.118;2023-02-22T05:03:38;79.20;;;33.22;;
49758;SDS011;35654;46.080;11.118;2023-02-22T05:06:05;76.65;;;33.35;;
49758;SDS011;35654;46.080;11.118;2023-02-22T05:08:32;78.30;;;33.55;;
49758;SDS011;35654;46.080;11.118;2023-02-22T05:10:58;78.15;;;33.45;;
49758;SDS011;35654;46.080;11.118;2023-02-22T05:13:25;76.03;;;34.17;;
49758;SDS011;35654;46.080;11.118;2023-02-22T05:15:52;87.18;;;33.22;;
49758;SDS011;35654;46.080;11.118;2023-02-22T05:18:18;84.10;;;34.85;;
49758;SDS011;35654;46.080;11.118;2023-02-22T05:20:45;85.40;;;33.73;;
49758;SDS011;35654;46.080;11.118;2023-02-22T05:25:36;81.63;;;33.13;;
49758;SDS011;35654;46.080;11.118;2023-02-22T05:28:03;83.77;;;34.13;;
49758;SDS011;35654;46.080;11.118;2023-02-22T05:30:35;77.88;;;33.05;;
49758;SDS011;35654;46.080;11.118;2023-02-22T05:33:05;81.50;;;33.22;;
49758;SDS011;35654;46.080;11.118;2023-02-22T05:35:32;88.38;;;33.58;;
49758;SDS011;35654;46.080;11.118;2023-02-22T05:42:53;97.07;;;38.83;;
49758;SDS011;35654;46.080;11.118;2023-02-22T05:45:22;97.00;;;37.35;;
49758;SDS011;35654;46.080;11.118;2023-02-22T05:47:50;92.78;;;34.72;;
49758;SDS011;35654;46.080;11.118;2023-02-22T05:50:18;79.70;;;33.47;;
49758;SDS011;35654;46.080;11.118;2023-02-22T05:52:45;80.07;;;33.95;;
49758;SDS011;35654;46.080;11.118;2023-02-22T05:55:15;86.13;;;32.47;;
49758;SDS011;35654;46.080;11.118;2023-02-22T05:57:44;85.30;;;32.42;;
49758;SDS011;35654;46.080;11.118;2023-02-22T06:00:21;80.60;;;31.95;;
49758;SDS011;35654;46.080;11.118;2023-02-22T06:02:59;74.47;;;31.48;;
49758;SDS011;35654;46.080;11.118;2023-02-22T06:05:31;79.63;;;31.23;;
49758;SDS011;35654;46.080;11.118;2023-02-22T06:07:58;83.20;;;31.27;;
49758;SDS011;35654;46.080;11.118;2023-02-22T06:10:25;73.03;;;30.02;;
49758;SDS011;35654;46.080;11.118;2023-02-22T06:12:53;81.30;;;31.90;;
49758;SDS011;35654;46.080;11.118;2023-02-22T06:15:21;88.75;;;32.22;;
49758;SDS011;35654;46.080;11.118;2023-02-22T06:17:48;67.80;;;29.23;;
49758;SDS011;35654;46.080;11.118;2023-02-22T06:20:16;77.83;;;30.53;;
49758;SDS011;35654;46.080;11.118;2023-02-22T06:22:48;81.93;;;29.73;;
49758;SDS011;35654;46.080;11.118;2023-02-22T06:25:16;72.60;;;29.35;;
49758;SDS011;35654;46.080;11.118;2023-02-22T06:27:45;75.80;;;29.42;;
49758;SDS011;35654;46.080;11.118;2023-02-22T06:30:12;79.80;;;28.02;;
49758;SDS011;35654;46.080;11.118;2023-02-22T06:32:40;68.97;;;28.40;;
49758;SDS011;35654;46.080;11.118;2023-02-22T06:35:06;63.90;;;26.70;;
49758;SDS011;35654;46.080;11.118;2023-02-22T06:37:34;68.13;;;26.65;;
49758;SDS011;35654;46.080;11.118;2023-02-22T06:40:02;65.82;;;27.70;;
49758;SDS011;35654;46.080;11.118;2023-02-22T06:42:28;62.65;;;25.90;;
49758;SDS011;35654;46.080;11.118;2023-02-22T06:44:55;60.63;;;25.73;;
49758;SDS011;35654;46.080;11.118;2023-02-22T06:47:21;67.68;;;26.73;;
49758;SDS011;35654;46.080;11.118;2023-02-22T06:49:56;67.63;;;26.30;;
49758;SDS011;35654;46.080;11.118;2023-02-22T06:52:24;61.20;;;25.05;;
49758;SDS011;35654;46.080;11.118;2023-02-22T06:54:51;59.05;;;23.85;;
49758;SDS011;35654;46.080;11.118;2023-02-22T06:59:45;54.65;;;22.65;;
49758;SDS011;35654;46.080;11.118;2023-02-22T07:04:37;53.63;;;22.00;;
49758;SDS011;35654;46.080;11.118;2023-02-22T07:07:04;58.40;;;22.63;;
49758;SDS011;35654;46.080;11.118;2023-02-22T07:11:59;49.47;;;20.95;;
49758;SDS011;35654;46.080;11.118;2023-02-22T07:16:52;52.05;;;22.05;;
49758;SDS011;35654;46.080;11.118;2023-02-22T07:19:19;66.27;;;23.30;;
49758;SDS011;35654;46.080;11.118;2023-02-22T07:21:46;58.05;;;22.55;;
49758;SDS011;35654;46.080;11.118;2023-02-22T07:24:12;51.83;;;21.95;;
49758;SDS011;35654;46.080;11.118;2023-02-22T07:26:38;52.83;;;21.50;;
49758;SDS011;35654;46.080;11.118;2023-02-22T07:29:06;52.45;;;21.08;;
49758;SDS011;35654;46.080;11.118;2023-02-22T07:31:36;48.17;;;20.27;;
49758;SDS011;35654;46.080;11.118;2023-02-22T07:34:04;51.72;;;20.55;;
49758;SDS011;35654;46.080;11.118;2023-02-22T07:36:29;54.17;;;25.73;;
49758;SDS011;35654;46.080;11.118;2023-02-22T07:38:54;64.90;;;22.50;;
49758;SDS011;35654;46.080;11.118;2023-02-22T07:41:20;65.50;;;23.20;;
49758;SDS011;35654;46.080;11.118;2023-02-22T07:43:46;65.53;;;24.63;;
49758;SDS011;35654;46.080;11.118;2023-02-22T07:46:12;104.57;;;40.23;;
49758;SDS011;35654;46.080;11.118;2023-02-22T07:48:37;56.17;;;23.30;;
49758;SDS011;35654;46.080;11.118;2023-02-22T07:51:03;55.93;;;22.90;;
49758;SDS011;35654;46.080;11.118;2023-02-22T07:53:30;52.85;;;22.40;;
49758;SDS011;35654;46.080;11.118;2023-02-22T07:55:58;49.85;;;23.70;;
49758;SDS011;35654;46.080;11.118;2023-02-22T07:58:26;70.00;;;25.75;;
49758;SDS011;35654;46.080;11.118;2023-02-22T08:00:53;59.22;;;24.13;;
49758;SDS011;35654;46.080;11.118;2023-02-22T08:03:21;50.97;;;22.75;;
49758;SDS011;35654;46.080;11.118;2023-02-22T08:05:51;53.83;;;22.80;;
49758;SDS011;35654;46.080;11.118;2023-02-22T08:08:19;59.88;;;23.92;;
49758;SDS011;35654;46.080;11.118;2023-02-22T08:10:47;60.67;;;24.90;;
49758;SDS011;35654;46.080;11.118;2023-02-22T08:13:15;55.85;;;24.17;;
49758;SDS011;35654;46.080;11.118;2023-02-22T08:15:41;60.20;;;24.48;;
49758;SDS011;35654;46.080;11.118;2023-02-22T08:18:11;55.20;;;24.05;;
49758;SDS011;35654;46.080;11.118;2023-02-22T08:20:41;61.17;;;23.65;;
49758;SDS011;35654;46.080;11.118;2023-02-22T08:23:08;53.50;;;22.67;;
49758;SDS011;35654;46.080;11.118;2023-02-22T08:25:35;54.28;;;23.65;;
49758;SDS011;35654;46.080;11.118;2023-02-22T08:28:03;46.08;;;21.17;;
49758;SDS011;35654;46.080;11.118;2023-02-22T08:30:31;52.83;;;22.55;;
49758;SDS011;35654;46.080;11.118;2023-02-22T08:32:59;51.78;;;23.05;;
49758;SDS011;35654;46.080;11.118;2023-02-22T08:35:26;53.20;;;21.75;;
49758;SDS011;35654;46.080;11.118;2023-02-22T08:37:55;48.35;;;21.23;;
49758;SDS011;35654;46.080;11.118;2023-02-22T08:40:23;50.28;;;20.92;;
49758;SDS011;35654;46.080;11.118;2023-02-22T08:42:50;50.17;;;21.42;;
49758;SDS011;35654;46.080;11.118;2023-02-22T08:45:16;48.85;;;21.05;;
49758;SDS011;35654;46.080;11.118;2023-02-22T08:47:41;57.03;;;22.53;;
49758;SDS011;35654;46.080;11.118;2023-02-22T08:50:08;59.10;;;22.87;;
49758;SDS011;35654;46.080;11.118;2023-02-22T08:52:39;63.38;;;23.40;;
49758;SDS011;35654;46.080;11.118;2023-02-22T08:55:05;49.60;;;20.87;;
49758;SDS011;35654;46.080;11.118;2023-02-22T08:57:31;47.20;;;21.23;;
49758;SDS011;35654;46.080;11.118;2023-02-22T08:59:56;52.13;;;21.90;;
49758;SDS011;35654;46.080;11.118;2023-02-22T09:02:22;57.80;;;22.80;;
49758;SDS011;35654;46.080;11.118;2023-02-22T09:07:14;52.97;;;21.73;;
49758;SDS011;35654;46.080;11.118;2023-02-22T09:09:41;50.33;;;22.88;;
49758;SDS011;35654;46.080;11.118;2023-02-22T09:12:07;58.80;;;23.25;;
49758;SDS011;35654;46.080;11.118;2023-02-22T09:14:33;49.77;;;22.70;;
49758;SDS011;35654;46.080;11.118;2023-02-22T09:17:00;47.93;;;21.97;;
49758;SDS011;35654;46.080;11.118;2023-02-22T09:19:26;99.30;;;29.83;;
49758;SDS011;35654;46.080;11.118;2023-02-22T09:21:57;53.00;;;23.75;;
49758;SDS011;35654;46.080;11.118;2023-02-22T09:24:24;50.03;;;22.92;;
49758;SDS011;35654;46.080;11.118;2023-02-22T09:26:49;54.30;;;23.37;;
49758;SDS011;35654;46.080;11.118;2023-02-22T09:29:18;51.33;;;23.10;;
49758;SDS011;35654;46.080;11.118;2023-02-22T09:31:49;68.10;;;24.88;;
49758;SDS011;35654;46.080;11.118;2023-02-22T09:34:16;53.67;;;22.70;;
49758;SDS011;35654;46.080;11.118;2023-02-22T09:36:44;54.53;;;24.42;;
49758;SDS011;35654;46.080;11.118;2023-02-22T09:39:11;57.95;;;26.27;;
49758;SDS011;35654;46.080;11.118;2023-02-22T09:44:13;58.10;;;25.80;;
49758;SDS011;35654;46.080;11.118;2023-02-22T09:46:45;56.85;;;25.45;;
49758;SDS011;35654;46.080;11.118;2023-02-22T09:51:57;57.03;;;26.30;;
49758;SDS011;35654;46.080;11.118;2023-02-22T09:57:32;61.10;;;28.83;;
49758;SDS011;35654;46.080;11.118;2023-02-22T10:00:17;64.85;;;28.65;;
49758;SDS011;35654;46.080;11.118;2023-02-22T10:05:38;66.70;;;29.33;;
49758;SDS011;35654;46.080;11.118;2023-02-22T10:08:10;64.28;;;29.02;;
49758;SDS011;35654;46.080;11.118;2023-02-22T10:10:43;72.10;;;31.40;;
49758;SDS011;35654;46.080;11.118;2023-02-22T10:26:41;70.10;;;32.50;;
49758;SDS011;35654;46.080;11.118;2023-02-22T10:29:19;67.20;;;33.63;;
49758;SDS011;35654;46.080;11.118;2023-02-22T10:31:59;71.65;;;31.73;;
49758;SDS011;35654;46.080;11.118;2023-02-22T10:34:29;71.80;;;32.88;;
49758;SDS011;35654;46.080;11.118;2023-02-22T10:39:50;73.15;;;36.90;;
49758;SDS011;35654;46.080;11.118;2023-02-22T10:42:21;72.90;;;35.45;;
49758;SDS011;35654;46.080;11.118;2023-02-22T10:44:50;69.45;;;34.92;;
49758;SDS011;35654;46.080;11.118;2023-02-22T10:47:16;76.30;;;35.87;;
49758;SDS011;35654;46.080;11.118;2023-02-22T10:49:48;72.03;;;36.13;;
49758;SDS011;35654;46.080;11.118;2023-02-22T10:52:30;73.22;;;36.88;;
49758;SDS011;35654;46.080;11.118;2023-02-22T10:54:58;69.55;;;36.60;;
49758;SDS011;35654;46.080;11.118;2023-02-22T10:57:29;93.22;;;40.17;;
49758;SDS011;35654;46.080;11.118;2023-02-22T11:00:00;73.32;;;38.72;;
49758;SDS011;35654;46.080;11.118;2023-02-22T11:02:53;76.88;;;40.08;;
49758;SDS011;35654;46.080;11.118;2023-02-22T11:05:32;73.32;;;37.47;;
49758;SDS011;35654;46.080;11.118;2023-02-22T11:10:44;70.68;;;37.53;;
49758;SDS011;35654;46.080;11.118;2023-02-22T11:15:42;77.47;;;40.53;;
49758;SDS011;35654;46.080;11.118;2023-02-22T11:18:15;75.47;;;40.33;;
49758;SDS011;35654;46.080;11.118;2023-02-22T11:20:48;71.07;;;37.95;;
49758;SDS011;35654;46.080;11.118;2023-02-22T11:23:33;79.03;;;45.13;;
49758;SDS011;35654;46.080;11.118;2023-02-22T11:26:06;78.57;;;40.35;;
49758;SDS011;35654;46.080;11.118;2023-02-22T11:28:42;76.50;;;40.15;;
49758;SDS011;35654;46.080;11.118;2023-02-22T11:31:21;74.18;;;40.58;;
49758;SDS011;35654;46.080;11.118;2023-02-22T11:33:58;70.80;;;39.15;;
49758;SDS011;35654;46.080;11.118;2023-02-22T11:36:32;74.82;;;41.55;;
49758;SDS011;35654;46.080;11.118;2023-02-22T11:39:28;71.05;;;39.03;;
49758;SDS011;35654;46.080;11.118;2023-02-22T11:41:55;77.50;;;40.80;;
49758;SDS011;35654;46.080;11.118;2023-02-22T11:44:31;74.90;;;41.13;;
49758;SDS011;35654;46.080;11.118;2023-02-22T11:47:01;76.82;;;41.00;;
49758;SDS011;35654;46.080;11.118;2023-02-22T11:49:34;72.45;;;38.30;;
49758;SDS011;35654;46.080;11.118;2023-02-22T11:58:15;69.78;;;38.28;;
49758;SDS011;35654;46.080;11.118;2023-02-22T12:09:59;69.50;;;39.67;;
49758;SDS011;35654;46.080;11.118;2023-02-22T12:15:20;71.38;;;38.45;;
49758;SDS011;35654;46.080;11.118;2023-02-22T12:21:01;72.30;;;39.85;;
49758;SDS011;35654;46.080;11.118;2023-02-22T12:26:39;74.65;;;40.25;;
49758;SDS011;35654;46.080;11.118;2023-02-22T12:29:20;73.10;;;37.92;;
49758;SDS011;35654;46.080;11.118;2023-02-22T12:32:03;70.43;;;38.22;;
49758;SDS011;35654;46.080;11.118;2023-02-22T12:34:49;75.78;;;38.80;;
49758;SDS011;35654;46.080;11.118;2023-02-22T12:37:29;66.97;;;37.13;;
49758;SDS011;35654;46.080;11.118;2023-02-22T12:43:07;75.57;;;38.78;;
49758;SDS011;35654;46.080;11.118;2023-02-22T12:45:51;67.63;;;35.13;;
49758;SDS011;35654;46.080;11.118;2023-02-22T12:54:29;70.22;;;39.30;;
49758;SDS011;35654;46.080;11.118;2023-02-22T12:57:33;73.15;;;39.38;;
49758;SDS011;35654;46.080;11.118;2023-02-22T13:03:35;72.75;;;38.83;;
49758;SDS011;35654;46.080;11.118;2023-02-22T13:11:56;78.22;;;42.42;;
49758;SDS011;35654;46.080;11.118;2023-02-22T13:26:25;72.95;;;39.67;;
49758;SDS011;35654;46.080;11.118;2023-02-22T13:40:34;77.53;;;44.20;;
49758;SDS011;35654;46.080;11.118;2023-02-22T13:52:11;108.28;;;55.22;;
49758;SDS011;35654;46.080;11.118;2023-02-22T13:54:57;114.00;;;56.38;;
49758;SDS011;35654;46.080;11.118;2023-02-22T13:57:39;112.97;;;58.60;;
49758;SDS011;35654;46.080;11.118;2023-02-22T14:03:06;128.18;;;60.95;;
49758;SDS011;35654;46.080;11.118;2023-02-22T14:05:59;129.48;;;61.75;;
49758;SDS011;35654;46.080;11.118;2023-02-22T14:11:04;125.63;;;60.43;;
49758;SDS011;35654;46.080;11.118;2023-02-22T14:16:26;132.75;;;62.83;;
49758;SDS011;35654;46.080;11.118;2023-02-22T14:22:26;130.70;;;61.05;;
49758;SDS011;35654;46.080;11.118;2023-02-22T14:24:51;132.60;;;63.40;;
49758;SDS011;35654;46.080;11.118;2023-02-22T14:27:17;136.13;;;62.70;;
49758;SDS011;35654;46.080;11.118;2023-02-22T14:29:54;140.02;;;61.72;;
49758;SDS011;35654;46.080;11.118;2023-02-22T14:32:32;133.82;;;60.97;;
49758;SDS011;35654;46.080;11.118;2023-02-22T14:35:12;142.98;;;60.55;;
49758;SDS011;35654;46.080;11.118;2023-02-22T14:37:41;147.88;;;63.25;;
49758;SDS011;35654;46.080;11.118;2023-02-22T14:40:24;132.10;;;59.53;;
49758;SDS011;35654;46.080;11.118;2023-02-22T14:45:56;143.80;;;63.58;;
49758;SDS011;35654;46.080;11.118;2023-02-22T14:48:38;150.57;;;64.30;;
49758;SDS011;35654;46.080;11.118;2023-02-22T14:51:18;160.00;;;62.58;;
49758;SDS011;35654;46.080;11.118;2023-02-22T14:57:10;150.88;;;61.08;;
49758;SDS011;35654;46.080;11.118;2023-02-22T14:59:53;147.27;;;61.92;;
49758;SDS011;35654;46.080;11.118;2023-02-22T15:02:24;146.35;;;61.78;;
49758;SDS011;35654;46.080;11.118;2023-02-22T15:04:52;147.60;;;62.58;;
49758;SDS011;35654;46.080;11.118;2023-02-22T15:07:21;146.93;;;59.75;;
49758;SDS011;35654;46.080;11.118;2023-02-22T15:10:14;143.70;;;58.78;;
49758;SDS011;35654;46.080;11.118;2023-02-22T15:12:51;143.65;;;59.75;;
49758;SDS011;35654;46.080;11.118;2023-02-22T15:15:21;149.13;;;62.50;;
49758;SDS011;35654;46.080;11.118;2023-02-22T15:17:51;149.63;;;59.92;;
49758;SDS011;35654;46.080;11.118;2023-02-22T15:20:20;142.43;;;57.65;;
49758;SDS011;35654;46.080;11.118;2023-02-22T15:22:50;149.70;;;58.67;;
49758;SDS011;35654;46.080;11.118;2023-02-22T15:25:24;146.63;;;60.28;;
49758;SDS011;35654;46.080;11.118;2023-02-22T15:27:53;149.27;;;59.67;;
49758;SDS011;35654;46.080;11.118;2023-02-22T15:30:29;147.20;;;59.38;;
49758;SDS011;35654;46.080;11.118;2023-02-22T15:33:20;146.02;;;57.78;;
49758;SDS011;35654;46.080;11.118;2023-02-22T15:35:55;149.90;;;60.47;;
49758;SDS011;35654;46.080;11.118;2023-02-22T15:38:26;158.57;;;64.53;;
49758;SDS011;35654;46.080;11.118;2023-02-22T15:41:05;149.10;;;60.00;;
49758;SDS011;35654;46.080;11.118;2023-02-22T15:43:35;145.48;;;58.00;;
49758;SDS011;35654;46.080;11.118;2023-02-22T15:46:03;143.02;;;58.03;;
49758;SDS011;35654;46.080;11.118;2023-02-22T15:48:32;153.13;;;60.78;;
49758;SDS011;35654;46.080;11.118;2023-02-22T15:51:18;144.43;;;59.53;;
49758;SDS011;35654;46.080;11.118;2023-02-22T15:53:48;149.27;;;58.17;;
49758;SDS011;35654;46.080;11.118;2023-02-22T15:56:17;145.07;;;57.65;;
49758;SDS011;35654;46.080;11.118;2023-02-22T15:58:57;152.80;;;59.72;;
49758;SDS011;35654;46.080;11.118;2023-02-22T16:01:26;149.25;;;58.35;;
49758;SDS011;35654;46.080;11.118;2023-02-22T16:06:35;147.15;;;56.72;;
49758;SDS011;35654;46.080;11.118;2023-02-22T16:11:37;146.88;;;58.20;;
49758;SDS011;35654;46.080;11.118;2023-02-22T16:22:43;158.00;;;60.35;;
49758;SDS011;35654;46.080;11.118;2023-02-22T16:27:53;150.35;;;57.35;;
49758;SDS011;35654;46.080;11.118;2023-02-22T16:30:36;148.90;;;57.45;;
49758;SDS011;35654;46.080;11.118;2023-02-22T16:33:06;145.60;;;55.90;;
49758;SDS011;35654;46.080;11.118;2023-02-22T16:35:38;151.25;;;57.05;;
49758;SDS011;35654;46.080;11.118;2023-02-22T16:38:06;142.82;;;55.53;;
49758;SDS011;35654;46.080;11.118;2023-02-22T16:40:52;164.43;;;57.30;;
49758;SDS011;35654;46.080;11.118;2023-02-22T16:43:24;156.68;;;59.15;;
49758;SDS011;35654;46.080;11.118;2023-02-22T16:48:28;159.10;;;56.38;;
49758;SDS011;35654;46.080;11.118;2023-02-22T16:50:59;149.95;;;56.08;;
49758;SDS011;35654;46.080;11.118;2023-02-22T16:53:31;155.50;;;57.47;;
49758;SDS011;35654;46.080;11.118;2023-02-22T16:56:04;150.43;;;57.28;;
49758;SDS011;35654;46.080;11.118;2023-02-22T16:58:35;160.63;;;58.80;;
49758;SDS011;35654;46.080;11.118;2023-02-22T17:01:03;152.80;;;56.45;;
49758;SDS011;35654;46.080;11.118;2023-02-22T17:03:29;157.70;;;57.13;;
49758;SDS011;35654;46.080;11.118;2023-02-22T17:05:54;160.57;;;58.93;;
49758;SDS011;35654;46.080;11.118;2023-02-22T17:08:20;158.40;;;57.50;;
49758;SDS011;35654;46.080;11.118;2023-02-22T17:10:46;156.97;;;58.43;;
49758;SDS011;35654;46.080;11.118;2023-02-22T17:13:15;161.02;;;58.80;;
49758;SDS011;35654;46.080;11.118;2023-02-22T17:15:44;150.65;;;55.97;;
49758;SDS011;35654;46.080;11.118;2023-02-22T17:18:13;160.63;;;56.80;;
49758;SDS011;35654;46.080;11.118;2023-02-22T17:20:46;158.50;;;58.22;;
49758;SDS011;35654;46.080;11.118;2023-02-22T17:23:16;163.68;;;59.22;;
49758;SDS011;35654;46.080;11.118;2023-02-22T17:26:00;167.73;;;58.80;;
49758;SDS011;35654;46.080;11.118;2023-02-22T17:28:27;162.77;;;58.17;;
49758;SDS011;35654;46.080;11.118;2023-02-22T17:30:54;161.27;;;58.80;;
49758;SDS011;35654;46.080;11.118;2023-02-22T17:33:25;156.65;;;58.95;;
49758;SDS011;35654;46.080;11.118;2023-02-22T17:35:53;165.48;;;60.03;;
49758;SDS011;35654;46.080;11.118;2023-02-22T17:38:22;174.77;;;65.43;;
49758;SDS011;35654;46.080;11.118;2023-02-22T17:40:50;167.90;;;58.20;;
49758;SDS011;35654;46.080;11.118;2023-02-22T17:43:17;164.53;;;61.80;;
49758;SDS011;35654;46.080;11.118;2023-02-22T17:45:43;173.68;;;61.92;;
49758;SDS011;35654;46.080;11.118;2023-02-22T17:48:10;177.02;;;65.35;;
49758;SDS011;35654;46.080;11.118;2023-02-22T17:50:37;196.95;;;72.63;;
49758;SDS011;35654;46.080;11.118;2023-02-22T17:53:04;165.70;;;60.50;;
49758;SDS011;35654;46.080;11.118;2023-02-22T17:55:30;181.27;;;66.88;;
49758;SDS011;35654;46.080;11.118;2023-02-22T17:57:58;171.60;;;61.83;;
49758;SDS011;35654;46.080;11.118;2023-02-22T18:00:26;165.50;;;59.22;;
49758;SDS011;35654;46.080;11.118;2023-02-22T18:02:59;166.10;;;60.53;;
49758;SDS011;35654;46.080;11.118;2023-02-22T18:05:26;176.98;;;59.97;;
49758;SDS011;35654;46.080;11.118;2023-02-22T18:07:52;175.17;;;62.77;;